Time;durP1;ratioP1;P1;durP2;ratioP2;P2;SDS_P1;SDS_P2;PMS_P1;PMS_P2;Temp;Humidity;BMP_temperature;BMP_pressure;BME280_temperature;BME280_humidity;BME280_pressure;Samples;Min_cycle;Max_cycle;Signal;HPM_P1;HPM_P2
2022/02/05 00:02:39;;;;;;;0.40;0.20;;;6.20;42.20;;;;;;5054843;28;20417;-53
2022/02/05 00:05:08;;;;;;;0.50;0.20;;;6.30;17.00;;;;;;5056516;28;20421;-54
2022/02/05 00:07:40;;;;;;;0.40;0.20;;;6.10;2.30;;;;;;5055107;28;20433;-50
2022/02/05 00:10:27;;;;;;;0.40;0.20;;;6.00;29.00;;;;;;5057169;28;20447;-51
2022/02/05 00:13:11;;;;;;;0.38;0.20;;;6.10;29.00;;;;;;5054673;28;20795;-53
2022/02/05 00:15:48;;;;;;;0.50;0.25;;;6.10;21.10;;;;;;5056110;28;20421;-52
2022/02/05 00:40:18;;;;;;;0.77;0.20;;;5.50;9.60;;;;;;5055941;28;20408;-51
2022/02/05 00:42:44;;;;;;;0.68;0.30;;;5.30;1.00;;;;;;5054116;28;20441;-52
2022/02/05 00:45:12;;;;;;;0.40;0.30;;;5.30;21.80;;;;;;5055027;28;20512;-54
2022/02/05 00:47:43;;;;;;;0.45;0.20;;;5.30;10.30;;;;;;5055211;28;20433;-53
2022/02/05 00:50:17;;;;;;;0.40;0.20;;;5.20;1.00;;;;;;5055870;28;20417;-51
2022/02/05 00:52:57;;;;;;;2.00;0.30;;;5.00;1.00;;;;;;5056228;28;20440;-52
2022/02/05 00:55:31;;;;;;;0.60;0.20;;;4.80;4.70;;;;;;5055414;28;20815;-51
2022/02/05 00:58:02;;;;;;;1.40;0.30;;;4.90;20.50;;;;;;5055162;28;20783;-54
2022/02/05 01:00:30;;;;;;;0.57;0.20;;;5.00;1.00;;;;;;5056593;28;20788;-49
2022/02/05 01:02:58;;;;;;;0.40;0.20;;;4.90;1.00;;;;;;5056117;28;20524;-50
2022/02/05 01:05:25;;;;;;;0.40;0.20;;;4.80;1.00;;;;;;5055122;28;20532;-52
2022/02/05 01:07:56;;;;;;;0.40;0.20;;;4.70;1.00;;;;;;5054702;28;20528;-54
2022/02/05 01:10:23;;;;;;;1.00;0.20;;;4.50;1.00;;;;;;5055323;28;20425;-54
2022/02/05 01:12:55;;;;;;;1.00;0.20;;;4.50;1.00;;;;;;5054773;28;20432;-53
2022/02/05 01:15:25;;;;;;;1.40;0.20;;;4.40;1.00;;;;;;5053933;28;20432;-50
2022/02/05 01:17:57;;;;;;;0.70;0.30;;;4.40;1.00;;;;;;5053197;28;20891;-50
2022/02/05 01:20:55;;;;;;;0.50;0.20;;;4.50;1.00;;;;;;5054537;28;20417;-52
2022/02/05 01:23:32;;;;;;;0.98;0.20;;;4.60;1.00;;;;;;5055710;28;20441;-52
2022/02/05 01:26:08;;;;;;;0.90;0.20;;;4.60;1.00;;;;;;5055156;28;20425;-51
2022/02/05 01:28:36;;;;;;;1.00;0.20;;;4.60;1.00;;;;;;5055295;28;20871;-54
2022/02/05 01:31:03;;;;;;;1.00;0.20;;;4.40;1.00;;;;;;5054073;28;20538;-52
2022/02/05 01:33:45;;;;;;;0.60;0.30;;;4.30;1.00;;;;;;5054642;28;20421;-49
2022/02/05 01:36:35;;;;;;;1.00;0.20;;;4.20;1.00;;;;;;5053859;28;20492;-52
2022/02/05 01:48:46;;;;;;;0.50;0.25;;;4.10;1.00;;;;;;5052608;28;20433;-48
2022/02/05 01:53:27;;;;;;;1.00;0.20;;;3.60;9.00;;;;;;5040260;28;20405;-52
2022/02/05 01:56:18;;;;;;;0.50;0.20;;;3.50;1.00;;;;;;5053710;28;20852;-52
2022/02/05 01:58:58;;;;;;;0.40;0.20;;;3.60;1.00;;;;;;5054831;28;20904;-52
2022/02/05 02:07:10;;;;;;;0.40;0.20;;;3.60;1.00;;;;;;5054640;28;20417;-51
2022/02/05 02:09:54;;;;;;;0.40;0.20;;;3.80;14.90;;;;;;5055591;28;20512;-51
2022/02/05 02:12:25;;;;;;;0.82;0.20;;;3.80;1.00;;;;;;5054892;28;20440;-53
2022/02/05 02:15:00;;;;;;;0.90;0.20;;;3.90;8.40;;;;;;5055004;28;20421;-51
2022/02/05 02:20:45;;;;;;;1.00;0.30;;;3.90;1.00;;;;;;5054846;28;20394;-50
2022/02/05 02:23:23;;;;;;;1.00;0.30;;;3.80;16.00;;;;;;5053690;28;20462;-53
2022/02/05 02:26:00;;;;;;;0.40;0.28;;;3.80;2.10;;;;;;5054755;28;20421;-55
2022/02/05 02:28:40;;;;;;;0.90;0.30;;;3.80;1.00;;;;;;5054547;28;20417;-53
2022/02/05 02:31:12;;;;;;;0.60;0.30;;;3.80;1.00;;;;;;5054594;28;20461;-49
2022/02/05 02:33:44;;;;;;;1.00;0.20;;;3.90;1.00;;;;;;5053878;28;20453;-54
2022/02/05 02:36:20;;;;;;;0.60;0.30;;;3.90;1.00;;;;;;5053244;28;20443;-52
2022/02/05 02:38:52;;;;;;;0.50;0.30;;;4.00;1.00;;;;;;5054831;28;20424;-55
2022/02/05 02:41:25;;;;;;;1.20;0.40;;;3.90;1.00;;;;;;5053728;28;20440;-54
2022/02/05 02:43:52;;;;;;;0.70;0.20;;;3.90;1.00;;;;;;5054207;28;20429;-51
2022/02/05 02:46:18;;;;;;;0.60;0.30;;;3.70;1.00;;;;;;5053450;28;20456;-56
2022/02/05 02:48:46;;;;;;;0.50;0.30;;;3.50;1.00;;;;;;5054321;28;20516;-55
2022/02/05 02:56:59;;;;;;;0.60;0.30;;;3.20;19.50;;;;;;5053857;28;20870;-49
2022/02/05 02:59:30;;;;;;;1.60;0.40;;;3.20;8.40;;;;;;5054724;28;20459;-49
2022/02/05 03:02:08;;;;;;;0.60;0.23;;;3.20;1.80;;;;;;5054429;28;20439;-50
2022/02/05 03:04:35;;;;;;;0.70;0.30;;;3.20;11.70;;;;;;5057441;28;20527;-53
2022/02/05 03:07:02;;;;;;;0.80;0.40;;;3.10;1.00;;;;;;5057584;28;20523;-51
2022/02/05 03:09:30;;;;;;;1.10;0.40;;;3.20;1.20;;;;;;5058524;28;20461;-55
2022/02/05 03:11:57;;;;;;;0.80;0.40;;;3.20;2.00;;;;;;5057787;28;20435;-54
2022/02/05 03:14:24;;;;;;;1.98;0.40;;;3.20;1.00;;;;;;5058415;28;20441;-48
2022/02/05 03:16:56;;;;;;;0.50;0.30;;;3.20;1.00;;;;;;5057630;28;20503;-53
2022/02/05 03:19:23;;;;;;;0.60;0.30;;;3.10;1.00;;;;;;5058324;28;20519;-53
2022/02/05 03:21:50;;;;;;;0.80;0.30;;;3.00;5.10;;;;;;5057200;28;20429;-55
2022/02/05 03:24:17;;;;;;;1.50;0.40;;;3.00;8.80;;;;;;5058358;28;20439;-50
2022/02/05 03:26:45;;;;;;;1.20;0.40;;;3.00;4.90;;;;;;5057504;28;20429;-53
2022/02/05 03:29:13;;;;;;;0.65;0.30;;;3.00;13.40;;;;;;5057602;28;20429;-50
2022/02/05 03:31:40;;;;;;;1.92;0.40;;;3.00;15.30;;;;;;5057408;28;20429;-49
2022/02/05 03:34:07;;;;;;;2.00;0.40;;;2.90;19.60;;;;;;5057988;28;20508;-55
2022/02/05 03:36:39;;;;;;;0.68;0.30;;;2.90;20.50;;;;;;5057991;28;20743;-49
2022/02/05 03:39:06;;;;;;;0.63;0.40;;;2.80;26.30;;;;;;5057547;28;20417;-51
2022/02/05 03:41:33;;;;;;;0.70;0.40;;;2.80;35.60;;;;;;5056741;28;20468;-48
2022/02/05 03:44:02;;;;;;;1.20;0.40;;;2.80;32.50;;;;;;5057237;28;20933;-51
2022/02/05 03:46:30;;;;;;;2.50;0.50;;;2.70;28.00;;;;;;5057664;28;20464;-49
2022/02/05 03:48:57;;;;;;;0.80;0.40;;;2.70;32.60;;;;;;5058302;28;20507;-50
2022/02/05 03:51:25;;;;;;;0.70;0.40;;;2.70;36.10;;;;;;5057718;28;20428;-53
2022/02/05 03:53:51;;;;;;;1.10;0.40;;;2.70;34.60;;;;;;5058166;28;20682;-52
2022/02/05 03:56:18;;;;;;;0.60;0.40;;;2.70;33.50;;;;;;5057217;28;20527;-52
2022/02/05 03:58:45;;;;;;;0.60;0.40;;;2.70;33.70;;;;;;5057468;28;20427;-54
2022/02/05 04:01:14;;;;;;;2.70;0.40;;;2.70;30.00;;;;;;5057060;28;20515;-54
2022/02/05 04:03:41;;;;;;;2.10;0.43;;;2.70;34.40;;;;;;5057750;28;20799;-52
2022/02/05 04:06:08;;;;;;;1.50;0.50;;;2.70;31.40;;;;;;5056550;28;20483;-53
2022/02/05 04:08:35;;;;;;;0.90;0.45;;;2.70;29.00;;;;;;5057471;28;20500;-51
2022/02/05 04:11:07;;;;;;;1.10;0.40;;;2.60;40.30;;;;;;5055924;28;20771;-55
2022/02/05 04:16:23;;;;;;;0.70;0.40;;;2.70;24.40;;;;;;5055499;28;20416;-53
2022/02/05 04:18:51;;;;;;;0.73;0.47;;;2.70;24.00;;;;;;5056283;28;20421;-50
2022/02/05 04:21:19;;;;;;;0.77;0.40;;;2.90;41.80;;;;;;5055913;28;20543;-53
2022/02/05 04:23:47;;;;;;;3.10;0.40;;;2.90;11.70;;;;;;5056317;28;20435;-48
2022/02/05 04:26:14;;;;;;;1.80;0.50;;;2.80;15.50;;;;;;5056450;28;20425;-51
2022/02/05 04:28:41;;;;;;;1.00;0.40;;;2.80;18.40;;;;;;5057042;28;20464;-56
2022/02/05 04:31:08;;;;;;;1.07;0.47;;;2.80;21.40;;;;;;5056513;28;20731;-49
2022/02/05 04:33:37;;;;;;;0.90;0.40;;;2.80;21.80;;;;;;5056946;28;20836;-50
2022/02/05 04:36:05;;;;;;;1.20;0.60;;;2.80;23.80;;;;;;5056675;28;20421;-50
2022/02/05 04:38:33;;;;;;;1.25;0.40;;;2.80;27.70;;;;;;5057248;28;20918;-52
2022/02/05 04:41:05;;;;;;;1.20;0.43;;;2.90;27.70;;;;;;5055560;28;20421;-52
2022/02/05 04:43:51;;;;;;;0.77;0.40;;;2.90;25.20;;;;;;5056865;28;20429;-54
2022/02/05 04:54:53;;;;;;;1.00;0.50;;;2.90;27.00;;;;;;5036117;28;20425;-52
2022/02/05 04:57:37;;;;;;;0.70;0.40;;;2.90;30.50;;;;;;5056465;28;20487;-52
2022/02/05 05:00:16;;;;;;;1.60;0.50;;;2.90;28.10;;;;;;5057014;28;20731;-50
2022/02/05 05:02:58;;;;;;;0.90;0.40;;;2.90;32.70;;;;;;5055940;28;20433;-55
2022/02/05 05:05:43;;;;;;;1.20;0.50;;;2.90;33.90;;;;;;5056278;28;20437;-53
2022/02/05 05:08:32;;;;;;;0.80;0.40;;;2.90;49.70;;;;;;5056299;28;20441;-49
2022/02/05 05:19:27;;;;;;;0.70;0.40;;;2.90;35.60;;;;;;5056152;28;20539;-51
2022/02/05 05:21:57;;;;;;;1.77;0.50;;;2.90;35.10;;;;;;5055955;28;20852;-51
2022/02/05 05:24:24;;;;;;;0.75;0.47;;;2.90;33.50;;;;;;5056459;28;20728;-54
2022/02/05 05:26:51;;;;;;;0.80;0.40;;;2.90;27.60;;;;;;5068901;28;20439;-50
2022/02/05 05:29:19;;;;;;;0.60;0.40;;;3.00;39.30;;;;;;5071022;28;20734;-51
2022/02/05 05:31:46;;;;;;;0.75;0.40;;;3.00;20.10;;;;;;5073975;28;20521;-53
2022/02/05 05:34:13;;;;;;;1.30;0.40;;;3.00;34.40;;;;;;5073861;28;20847;-49
2022/02/05 05:36:41;;;;;;;1.20;0.30;;;3.10;18.70;;;;;;5074221;28;20471;-51
2022/02/05 05:39:11;;;;;;;1.27;0.30;;;3.10;12.60;;;;;;5074635;28;20459;-50
2022/02/05 05:41:39;;;;;;;0.90;0.60;;;3.10;15.00;;;;;;5072157;28;20463;-51
2022/02/05 05:44:24;;;;;;;0.80;0.40;;;3.10;7.70;;;;;;5073607;28;20420;-50
2022/02/05 05:47:03;;;;;;;0.80;0.40;;;3.10;13.10;;;;;;5074431;28;20467;-51
2022/02/05 05:49:46;;;;;;;0.80;0.50;;;3.10;2.40;;;;;;5075255;28;20515;-55
2022/02/05 05:52:13;;;;;;;1.30;0.40;;;3.30;7.90;;;;;;5075198;28;20463;-52
2022/02/05 05:54:43;;;;;;;1.40;0.50;;;3.30;10.70;;;;;;5075606;28;20504;-52
2022/02/05 05:57:10;;;;;;;0.60;0.40;;;3.30;1.00;;;;;;5075013;28;20903;-50
2022/02/05 05:59:38;;;;;;;1.00;0.40;;;3.30;6.70;;;;;;5075575;28;20461;-47
2022/02/05 06:02:06;;;;;;;1.00;0.40;;;3.30;1.00;;;;;;5073352;28;20431;-46
2022/02/05 06:04:33;;;;;;;1.30;0.50;;;3.20;16.20;;;;;;5074451;28;20811;-50
2022/02/05 06:07:00;;;;;;;0.70;0.40;;;3.20;14.50;;;;;;5069580;28;20727;-53
2022/02/05 06:09:27;;;;;;;2.20;0.40;;;3.20;22.80;;;;;;5055585;28;20518;-53
2022/02/05 06:11:56;;;;;;;1.50;0.40;;;3.30;18.10;;;;;;5070263;28;20530;-50
2022/02/05 06:14:26;;;;;;;1.95;0.47;;;3.30;21.40;;;;;;5075256;28;20506;-54
2022/02/05 06:16:58;;;;;;;1.05;0.50;;;3.30;24.00;;;;;;5074644;28;20431;-49
2022/02/05 06:19:25;;;;;;;1.30;0.40;;;3.30;19.50;;;;;;5075461;28;20502;-53
2022/02/05 06:21:52;;;;;;;0.70;0.40;;;3.20;20.80;;;;;;5073109;28;20523;-53
2022/02/05 06:24:18;;;;;;;1.30;0.40;;;3.20;28.70;;;;;;5074879;28;20506;-48
2022/02/05 06:26:45;;;;;;;0.70;0.40;;;3.30;26.30;;;;;;5073006;28;20526;-52
2022/02/05 06:29:13;;;;;;;1.70;0.40;;;3.20;19.80;;;;;;5067828;28;20430;-50
2022/02/05 06:31:40;;;;;;;1.10;0.40;;;3.20;20.50;;;;;;5070556;28;20616;-51
2022/02/05 06:34:07;;;;;;;0.70;0.40;;;3.20;21.70;;;;;;5054463;28;20504;-54
2022/02/05 06:36:34;;;;;;;1.40;0.30;;;3.30;30.10;;;;;;5069049;28;20521;-53
2022/02/05 06:39:01;;;;;;;1.75;0.47;;;3.30;22.60;;;;;;5072879;28;20791;-53
2022/02/05 06:41:28;;;;;;;0.70;0.40;;;3.30;21.30;;;;;;5072666;28;20431;-54
2022/02/05 06:43:54;;;;;;;2.03;0.47;;;3.30;16.90;;;;;;5073992;28;20419;-54
2022/02/05 06:46:23;;;;;;;1.50;0.40;;;3.30;18.20;;;;;;5073534;28;20436;-53
2022/02/05 06:48:49;;;;;;;1.50;0.40;;;3.40;22.40;;;;;;5073685;28;20498;-54
2022/02/05 06:51:16;;;;;;;0.70;0.40;;;3.40;20.80;;;;;;5072972;28;20467;-52
2022/02/05 06:53:43;;;;;;;0.80;0.50;;;3.40;27.20;;;;;;5074123;28;20502;-50
2022/02/05 06:56:10;;;;;;;0.80;0.40;;;3.40;25.00;;;;;;5073652;28;20463;-53
2022/02/05 06:58:37;;;;;;;1.25;0.40;;;3.40;38.80;;;;;;5075086;28;20510;-50
2022/02/05 07:01:04;;;;;;;1.00;0.40;;;3.50;36.10;;;;;;5072172;28;20458;-55
2022/02/05 07:03:32;;;;;;;1.08;0.40;;;3.50;14.20;;;;;;5074032;28;20912;-54
2022/02/05 07:05:59;;;;;;;0.90;0.40;;;3.50;26.10;;;;;;5073618;28;20929;-53
2022/02/05 07:08:26;;;;;;;1.00;0.40;;;3.50;21.00;;;;;;5074774;28;20506;-49
2022/02/05 07:10:52;;;;;;;0.70;0.40;;;3.50;20.00;;;;;;5073485;28;20506;-50
2022/02/05 07:13:21;;;;;;;0.93;0.50;;;3.40;30.60;;;;;;5074419;28;20466;-50
2022/02/05 07:15:55;;;;;;;0.73;0.50;;;3.40;35.10;;;;;;5074390;28;20898;-49
2022/02/05 07:18:30;;;;;;;1.60;0.50;;;3.50;30.10;;;;;;5074253;28;20445;-51
2022/02/05 07:21:02;;;;;;;0.80;0.40;;;3.50;34.60;;;;;;5074037;28;20422;-48
2022/02/05 07:29:16;;;;;;;0.80;0.40;;;3.40;38.70;;;;;;5073888;28;20505;-55
2022/02/05 07:31:45;;;;;;;1.70;0.40;;;3.50;43.20;;;;;;5073019;28;20489;-52
2022/02/05 07:34:13;;;;;;;0.90;0.50;;;3.50;41.70;;;;;;5073777;28;20724;-53
2022/02/05 07:36:41;;;;;;;1.75;0.50;;;3.60;32.10;;;;;;5073492;28;20469;-54
2022/02/05 07:39:10;;;;;;;0.80;0.50;;;3.60;40.00;;;;;;5073966;28;20798;-51
2022/02/05 07:41:39;;;;;;;1.80;0.50;;;3.60;33.70;;;;;;5073127;28;20463;-61
2022/02/05 07:44:11;;;;;;;0.82;0.40;;;3.50;32.90;;;;;;5073441;28;20415;-60
2022/02/05 07:46:38;;;;;;;0.70;0.40;;;3.40;44.60;;;;;;5072608;28;20446;-58
2022/02/05 07:49:05;;;;;;;0.77;0.40;;;3.50;51.90;;;;;;5074618;28;20514;-58
2022/02/05 07:51:32;;;;;;;1.50;0.40;;;3.50;42.40;;;;;;5076827;28;20464;-48
2022/02/05 07:54:00;;;;;;;0.80;0.40;;;3.50;37.90;;;;;;5077775;28;20517;-50
2022/02/05 07:56:27;;;;;;;0.90;0.40;;;3.50;44.20;;;;;;5077026;28;20510;-47
2022/02/05 07:58:55;;;;;;;0.90;0.50;;;3.50;46.20;;;;;;5077644;28;20419;-53
2022/02/05 08:01:22;;;;;;;0.70;0.40;;;3.40;45.50;;;;;;5075846;28;20485;-49
2022/02/05 08:03:48;;;;;;;3.90;0.40;;;3.50;51.40;;;;;;5075820;28;20439;-49
2022/02/05 08:06:17;;;;;;;1.00;0.40;;;3.50;40.80;;;;;;5073491;28;20816;-48
2022/02/05 08:08:46;;;;;;;0.90;0.40;;;3.50;43.00;;;;;;5074743;28;20783;-52
2022/02/05 08:11:18;;;;;;;1.02;0.40;;;3.50;32.80;;;;;;5073931;28;20744;-49
2022/02/05 08:13:48;;;;;;;1.10;0.50;;;3.50;40.40;;;;;;5074222;28;20419;-53
2022/02/05 08:16:29;;;;;;;1.80;0.40;;;3.60;30.10;;;;;;5074819;28;20485;-52
2022/02/05 08:18:56;;;;;;;1.00;0.50;;;3.70;34.50;;;;;;5076194;28;20476;-51
2022/02/05 08:21:27;;;;;;;1.10;0.40;;;3.80;15.70;;;;;;5073157;28;20427;-55
2022/02/05 08:23:54;;;;;;;1.50;0.40;;;3.90;14.20;;;;;;5075180;28;20926;-56
2022/02/05 08:26:27;;;;;;;2.22;0.40;;;4.00;1.00;;;;;;5073753;28;20995;-54
2022/02/05 08:28:54;;;;;;;0.73;0.40;;;4.00;9.90;;;;;;5073755;28;20506;-54
2022/02/05 08:31:21;;;;;;;2.70;0.40;;;4.10;5.00;;;;;;5073166;28;20431;-54
2022/02/05 08:33:52;;;;;;;0.90;0.40;;;4.20;6.30;;;;;;5076757;28;20734;-57
2022/02/05 08:36:22;;;;;;;0.70;0.40;;;4.30;1.00;;;;;;5075820;28;20434;-56
2022/02/05 08:38:49;;;;;;;1.20;0.30;;;4.30;1.00;;;;;;5075844;28;20450;-52
2022/02/05 08:41:17;;;;;;;0.80;0.32;;;4.40;1.00;;;;;;5074646;28;20497;-55
2022/02/05 08:43:45;;;;;;;1.20;0.40;;;4.40;1.00;;;;;;5075662;28;20423;-50
2022/02/05 08:46:12;;;;;;;0.85;0.40;;;4.60;1.00;;;;;;5075221;28;20539;-56
2022/02/05 08:48:39;;;;;;;0.63;0.40;;;4.80;1.00;;;;;;5073743;28;20458;-55
2022/02/05 08:51:07;;;;;;;0.90;0.40;;;5.00;1.00;;;;;;5074654;28;20867;-50
2022/02/05 08:53:36;;;;;;;1.00;0.40;;;5.30;1.00;;;;;;5074537;28;20514;-53
2022/02/05 08:56:03;;;;;;;1.10;0.30;;;5.60;1.00;;;;;;5073415;28;20902;-54
2022/02/05 08:58:30;;;;;;;2.00;0.40;;;5.40;1.00;;;;;;5062328;28;20531;-54
2022/02/05 09:01:09;;;;;;;2.20;0.40;;;5.30;1.00;;;;;;5066037;28;20450;-53
2022/02/05 09:03:44;;;;;;;1.00;0.43;;;5.30;1.00;;;;;;5070741;28;20465;-50
2022/02/05 09:06:11;;;;;;;0.70;0.40;;;5.40;1.00;;;;;;5071233;28;20853;-53
2022/02/05 09:08:43;;;;;;;1.20;0.30;;;5.40;1.00;;;;;;5071256;28;20511;-56
2022/02/05 09:11:17;;;;;;;0.50;0.30;;;5.60;1.00;;;;;;5073293;28;20462;-54
2022/02/05 09:16:29;;;;;;;0.80;0.40;;;5.70;1.00;;;;;;5064184;28;20416;-55
2022/02/05 09:18:56;;;;;;;0.80;0.40;;;5.60;1.00;;;;;;5060361;28;20489;-54
2022/02/05 09:21:24;;;;;;;1.40;0.35;;;5.60;1.00;;;;;;5070366;28;20514;-51
2022/02/05 09:23:54;;;;;;;0.80;0.30;;;5.80;1.00;;;;;;5070293;28;20776;-53
2022/02/05 09:26:21;;;;;;;1.00;0.30;;;5.70;1.00;;;;;;5069710;28;20925;-54
2022/02/05 09:28:48;;;;;;;0.93;0.30;;;5.60;1.00;;;;;;5071045;28;20439;-53
2022/02/05 09:31:31;;;;;;;1.60;0.30;;;5.60;1.00;;;;;;5073125;28;20436;-52
2022/02/05 09:33:59;;;;;;;1.42;0.30;;;5.50;1.00;;;;;;5072646;28;20446;-54
2022/02/05 09:36:28;;;;;;;0.70;0.30;;;5.60;1.00;;;;;;5072839;28;20880;-52
2022/02/05 09:38:56;;;;;;;1.33;0.30;;;5.90;1.00;;;;;;5070002;28;20885;-54
2022/02/05 09:41:23;;;;;;;1.30;0.30;;;6.00;99.90;;;;;;5066976;28;20433;-54
2022/02/05 09:43:51;;;;;;;1.35;0.30;;;5.90;1.00;;;;;;5062729;28;20753;-50
2022/02/05 09:46:22;;;;;;;1.00;0.30;;;6.10;99.90;;;;;;5072787;28;20526;-52
2022/02/05 09:48:50;;;;;;;0.55;0.30;;;6.00;99.90;;;;;;5071081;28;20819;-51
2022/02/05 09:51:21;;;;;;;0.70;0.30;;;5.90;1.00;;;;;;5069953;28;20966;-53
2022/02/05 09:53:49;;;;;;;1.77;0.30;;;6.20;1.00;;;;;;5058239;28;20902;-52
2022/02/05 09:56:17;;;;;;;0.60;0.30;;;6.30;99.90;;;;;;5071245;28;20491;-54
2022/02/05 09:58:44;;;;;;;1.85;0.32;;;6.40;1.00;;;;;;5070867;28;20462;-53
2022/02/05 10:01:15;;;;;;;2.00;0.40;;;6.30;99.90;;;;;;5070156;28;20510;-54
2022/02/05 10:03:43;;;;;;;0.90;0.30;;;6.30;1.00;;;;;;5071030;28;20874;-56
2022/02/05 10:06:13;;;;;;;0.50;0.30;;;6.20;99.90;;;;;;5070239;28;20443;-53
2022/02/05 10:08:46;;;;;;;2.00;0.30;;;6.60;99.90;;;;;;5057185;28;20431;-52
2022/02/05 10:11:14;;;;;;;0.90;0.30;;;6.60;1.00;;;;;;5068654;28;20431;-55
2022/02/05 10:13:42;;;;;;;1.10;0.40;;;6.60;99.90;;;;;;5063491;28;20525;-55
2022/02/05 10:16:10;;;;;;;0.50;0.30;;;6.60;1.00;;;;;;5061948;28;21215;-55
2022/02/05 10:18:40;;;;;;;0.60;0.30;;;6.40;1.00;;;;;;5061201;28;20443;-52
2022/02/05 10:21:20;;;;;;;0.80;0.30;;;6.60;99.90;;;;;;5054723;28;20455;-53
2022/02/05 10:24:00;;;;;;;1.23;0.68;;;6.80;1.00;;;;;;5069242;28;20514;-56
2022/02/05 10:26:32;;;;;;;1.90;0.30;;;6.90;99.90;;;;;;5065323;28;20435;-54
2022/02/05 10:29:02;;;;;;;1.10;0.30;;;6.70;1.00;;;;;;5070004;28;20501;-52
2022/02/05 10:31:30;;;;;;;1.43;0.40;;;6.70;73.90;;;;;;5063483;28;20448;-52
2022/02/05 10:34:09;;;;;;;1.00;0.40;;;6.60;99.90;;;;;;5069525;28;20912;-55
2022/02/05 10:36:35;;;;;;;0.70;0.30;;;6.70;99.90;;;;;;5064983;28;20455;-54
2022/02/05 10:39:13;;;;;;;1.50;0.30;;;6.80;1.00;;;;;;5069283;28;20506;-56
2022/02/05 10:44:28;;;;;;;0.77;0.33;;;7.20;99.90;;;;;;5068746;28;20520;-55
2022/02/05 10:46:56;;;;;;;1.20;0.40;;;7.40;1.00;;;;;;5066027;28;20912;-55
2022/02/05 10:49:45;;;;;;;0.88;0.40;;;7.40;1.00;;;;;;5067183;28;20424;-56
2022/02/05 10:52:26;;;;;;;1.95;0.40;;;7.40;99.90;;;;;;5067357;28;20920;-57
2022/02/05 10:55:05;;;;;;;1.63;0.50;;;7.80;1.00;;;;;;5073864;28;20437;-55
2022/02/05 10:57:39;;;;;;;1.00;0.20;;;7.60;1.00;;;;;;5064067;28;20434;-56
2022/02/05 11:05:40;;;;;;;0.73;0.30;;;7.70;1.00;;;;;;5070928;28;20487;-54
2022/02/05 11:08:08;;;;;;;1.00;0.30;;;7.90;1.00;;;;;;5070453;28;20612;-55
2022/02/05 11:10:57;;;;;;;0.60;0.20;;;8.00;99.90;;;;;;5077481;28;20452;-56
2022/02/05 11:19:09;;;;;;;0.90;0.30;;;8.60;99.90;;;;;;5064297;28;20409;-50
2022/02/05 11:21:37;;;;;;;0.50;0.20;;;8.70;99.90;;;;;;5060847;28;20455;-55
2022/02/05 11:24:07;;;;;;;1.10;0.30;;;8.70;59.30;;;;;;5070773;28;20840;-55
2022/02/05 11:26:36;;;;;;;0.80;0.20;;;8.60;99.90;;;;;;5065854;28;20530;-54
2022/02/05 11:29:04;;;;;;;0.88;0.20;;;8.50;81.60;;;;;;5073099;28;20445;-56
2022/02/05 11:31:35;;;;;;;0.57;0.20;;;8.50;67.50;;;;;;5070237;28;20501;-56
2022/02/05 11:34:22;;;;;;;0.40;0.20;;;8.40;99.90;;;;;;5075129;28;20423;-54
2022/02/05 11:37:00;;;;;;;0.60;0.30;;;8.40;43.70;;;;;;5070570;28;20435;-57
2022/02/05 11:39:27;;;;;;;0.90;0.30;;;8.30;99.90;;;;;;5074835;28;20514;-56
2022/02/05 11:41:57;;;;;;;1.20;0.20;;;8.40;99.90;;;;;;5071909;28;20527;-56
2022/02/05 11:44:29;;;;;;;1.45;0.20;;;8.60;99.90;;;;;;5075714;28;20502;-57
2022/02/05 11:47:31;;;;;;;0.43;0.20;;;8.80;2.00;;;;;;5072084;28;20493;-54
2022/02/05 11:50:19;;;;;;;0.70;0.20;;;8.60;6.60;;;;;;5072379;28;20514;-58
2022/02/05 11:53:10;;;;;;;0.60;0.20;;;8.80;9.80;;;;;;5068974;28;20829;-56
2022/02/05 11:55:43;;;;;;;0.30;0.20;;;8.80;1.00;;;;;;5075253;28;20427;-55
2022/02/05 11:58:13;;;;;;;0.70;0.30;;;8.50;1.00;;;;;;5071117;28;20455;-56
2022/02/05 12:00:43;;;;;;;0.40;0.20;;;8.50;99.90;;;;;;5070347;28;20469;-55
2022/02/05 12:03:33;;;;;;;0.60;0.20;;;8.70;1.00;;;;;;5068369;28;20955;-56
2022/02/05 12:06:06;;;;;;;2.55;0.20;;;8.60;1.00;;;;;;5072835;28;21032;-57
2022/02/05 12:08:39;;;;;;;1.10;0.20;;;8.70;2.90;;;;;;5072783;28;20640;-56
2022/02/05 12:11:29;;;;;;;0.50;0.20;;;8.50;2.70;;;;;;5074470;28;20713;-53
2022/02/05 12:14:18;;;;;;;1.90;0.20;;;8.50;16.70;;;;;;5069580;28;20781;-56
2022/02/05 12:17:16;;;;;;;0.73;0.20;;;8.70;2.40;;;;;;5065085;28;20427;-56
2022/02/05 12:20:00;;;;;;;0.30;0.17;;;8.70;1.00;;;;;;5068254;28;21076;-59
2022/02/05 12:22:59;;;;;;;0.50;0.20;;;8.90;1.00;;;;;;5068804;28;20923;-59
2022/02/05 12:25:26;;;;;;;0.50;0.20;;;9.00;1.00;;;;;;5071284;28;20434;-59
2022/02/05 12:27:54;;;;;;;0.80;0.20;;;9.20;1.00;;;;;;5069433;28;20435;-59
2022/02/05 12:30:41;;;;;;;0.47;0.13;;;9.20;1.00;;;;;;5072609;28;21030;-60
2022/02/05 12:33:10;;;;;;;0.55;0.20;;;9.20;1.00;;;;;;5072852;28;20855;-59
2022/02/05 12:35:49;;;;;;;0.70;0.20;;;9.20;1.00;;;;;;5072973;28;20423;-59
2022/02/05 12:38:16;;;;;;;0.60;0.20;;;9.10;1.00;;;;;;5071906;28;20427;-59
2022/02/05 12:40:49;;;;;;;0.40;0.20;;;9.10;1.00;;;;;;5064192;28;20510;-58
2022/02/05 12:43:19;;;;;;;2.00;0.30;;;9.00;1.00;;;;;;5062582;28;20432;-59
2022/02/05 12:45:54;;;;;;;0.90;0.20;;;9.00;1.00;;;;;;5064463;28;20423;-58
2022/02/05 12:48:24;;;;;;;0.52;0.20;;;9.00;1.00;;;;;;5069681;28;20503;-57
2022/02/05 12:50:51;;;;;;;0.50;0.20;;;9.00;1.00;;;;;;5072929;28;20431;-59
2022/02/05 12:53:20;;;;;;;0.55;0.20;;;9.10;1.00;;;;;;5066955;28;20914;-59
2022/02/05 12:55:47;;;;;;;1.30;0.20;;;9.20;1.00;;;;;;5058613;28;20785;-59
2022/02/05 12:58:18;;;;;;;0.50;0.10;;;9.00;1.00;;;;;;5069257;28;20791;-63
2022/02/05 13:01:05;;;;;;;0.80;0.20;;;8.90;1.00;;;;;;5071981;28;20420;-57
2022/02/05 13:03:32;;;;;;;0.85;0.20;;;8.90;1.00;;;;;;5070078;28;20431;-58
2022/02/05 13:05:59;;;;;;;0.30;0.10;;;8.70;1.00;;;;;;5072742;28;20515;-59
2022/02/05 13:08:27;;;;;;;0.75;0.10;;;8.60;1.00;;;;;;5070970;28;20518;-56
2022/02/05 13:10:54;;;;;;;0.98;0.20;;;8.50;1.00;;;;;;5071852;28;20426;-56
2022/02/05 13:13:22;;;;;;;2.10;0.20;;;8.70;1.00;;;;;;5071736;28;20451;-58
2022/02/05 13:15:54;;;;;;;0.30;0.10;;;8.80;1.00;;;;;;5071219;28;20484;-56
2022/02/05 13:18:30;;;;;;;0.40;0.20;;;8.80;1.00;;;;;;5068553;28;20424;-57
2022/02/05 13:26:40;;;;;;;0.70;0.20;;;8.80;1.00;;;;;;5070242;28;20530;-58
2022/02/05 13:29:23;;;;;;;0.63;0.20;;;8.90;1.00;;;;;;5068420;28;20525;-58
2022/02/05 13:34:39;;;;;;;0.80;0.20;;;8.70;1.00;;;;;;5068659;28;20868;-58
2022/02/05 13:37:14;;;;;;;1.10;0.30;;;8.90;1.00;;;;;;5072448;28;20447;-57
2022/02/05 13:39:50;;;;;;;0.70;0.30;;;8.90;1.00;;;;;;5070313;28;20432;-57
2022/02/05 13:42:22;;;;;;;0.50;0.20;;;8.90;1.00;;;;;;5067671;28;20433;-58
2022/02/05 13:44:57;;;;;;;2.40;1.00;;;8.90;1.00;;;;;;5062990;28;20418;-57
2022/02/05 13:47:27;;;;;;;0.60;0.30;;;8.80;1.00;;;;;;5071094;28;20436;-57
2022/02/05 13:50:03;;;;;;;1.42;0.20;;;8.70;1.00;;;;;;5069600;28;20422;-57
2022/02/05 13:52:35;;;;;;;1.42;0.20;;;8.60;1.00;;;;;;5071048;28;20510;-58
2022/02/05 13:55:18;;;;;;;0.77;0.20;;;8.60;1.00;;;;;;5070911;28;20901;-58
2022/02/05 13:57:57;;;;;;;1.00;0.20;;;8.70;1.00;;;;;;5065315;28;20429;-58
2022/02/05 14:00:25;;;;;;;0.70;0.10;;;8.70;1.00;;;;;;5065525;28;20830;-57
2022/02/05 14:03:00;;;;;;;0.60;0.20;;;8.70;1.00;;;;;;5065021;28;20518;-57
2022/02/05 14:05:28;;;;;;;0.73;0.30;;;8.70;1.00;;;;;;5066553;28;20502;-58
2022/02/05 14:07:55;;;;;;;1.20;0.20;;;8.70;1.00;;;;;;5070632;28;20982;-58
2022/02/05 14:10:23;;;;;;;0.63;0.20;;;8.70;1.00;;;;;;5067886;28;20910;-58
2022/02/05 14:12:53;;;;;;;0.90;0.20;;;8.40;1.00;;;;;;5070469;28;20950;-58
2022/02/05 14:15:21;;;;;;;0.50;0.20;;;8.50;1.00;;;;;;5069467;28;20753;-58
2022/02/05 14:17:49;;;;;;;1.88;0.20;;;8.40;1.00;;;;;;5070074;28;20522;-58
2022/02/05 14:20:20;;;;;;;1.60;0.60;;;8.30;4.30;;;;;;5067908;28;20530;-58
2022/02/05 14:22:50;;;;;;;1.20;0.30;;;8.30;1.00;;;;;;5070217;28;20436;-58
2022/02/05 14:25:21;;;;;;;0.50;0.20;;;8.30;80.00;;;;;;5069806;28;20447;-58
2022/02/05 14:28:10;;;;;;;0.80;0.20;;;8.30;5.10;;;;;;5067772;28;20447;-58
2022/02/05 14:30:41;;;;;;;1.40;0.30;;;8.50;99.90;;;;;;5069186;28;20452;-58
2022/02/05 14:33:09;;;;;;;0.65;0.20;;;8.40;1.00;;;;;;5069283;28;20489;-58
2022/02/05 14:36:13;;;;;;;0.85;0.20;;;8.40;7.00;;;;;;5070485;28;20447;-59
2022/02/05 14:41:20;;;;;;;0.70;0.20;;;8.50;94.90;;;;;;5068592;28;20434;-59
2022/02/05 14:43:47;;;;;;;0.70;0.20;;;8.40;1.00;;;;;;5071945;28;20502;-59
2022/02/05 14:46:14;;;;;;;0.60;0.20;;;8.40;16.70;;;;;;5066725;28;20842;-60
2022/02/05 14:48:40;;;;;;;1.70;0.20;;;8.50;10.80;;;;;;5051895;28;20512;-60
2022/02/05 14:51:09;;;;;;;0.90;0.20;;;8.50;7.10;;;;;;5052040;28;20538;-60
2022/02/05 14:53:36;;;;;;;0.70;0.20;;;8.40;1.00;;;;;;5053760;28;20468;-59
2022/02/05 14:56:03;;;;;;;0.68;0.20;;;8.40;20.00;;;;;;5049855;28;20437;-59
2022/02/05 14:58:29;;;;;;;0.80;0.20;;;8.20;1.00;;;;;;5050614;28;20518;-59
2022/02/05 15:00:56;;;;;;;0.68;0.20;;;8.10;55.30;;;;;;5053716;28;20505;-59
2022/02/05 15:04:56;;;;;;;1.10;0.20;;;7.80;1.00;;;;;;5170958;27;20333;-60
2022/02/05 15:07:24;;;;;;;0.50;0.20;;;7.60;1.00;;;;;;5170729;27;20496;-59
2022/02/05 15:09:51;;;;;;;0.50;0.20;;;7.50;1.00;;;;;;5169886;27;20496;-60